Cranbrook Airport


Codes: CYXC/YXC
Name: Cranbrook Airport
City: Cranbrook
Country: Canada
Elevation: 3082 ft.
Wikipedia:

Photos at Cranbrook Airport


   Photos courtesy of SpottingLog. You can add your own sightings and photos by signing up for a free trial today.



No photos found.

Weather at Cranbrook Airport


Time (UTC)DescriptionTempratureWindCloud coverageVisibilityPressureHumidity
25-Jun-2024 15:00Few Clouds10°C2 mph, N11%10000m1017hPa58%
25-Jun-2024 18:00Clear Sky18°C2 mph, NE6%10000m1016hPa41%
25-Jun-2024 21:00Scattered Clouds26°C4 mph, E37%10000m1014hPa18%
26-Jun-2024 00:00Broken Clouds26°C4 mph, E68%10000m1012hPa19%
26-Jun-2024 03:00Scattered Clouds20°C2 mph, SE28%10000m1013hPa36%
26-Jun-2024 06:00Few Clouds14°C2 mph, SW14%10000m1015hPa48%
26-Jun-2024 09:00Clear Sky11°C2 mph, SW0%10000m1015hPa60%
26-Jun-2024 12:00Clear Sky10°C2 mph, SW0%10000m1015hPa69%
26-Jun-2024 15:00Clear Sky17°C0 mph, NE0%10000m1012hPa51%
26-Jun-2024 18:00Few Clouds24°C2 mph, E19%10000m1007hPa34%
26-Jun-2024 21:00Light Rain16°C4 mph, SE100%10000m1009hPa80%
27-Jun-2024 00:00Light Rain18°C4 mph, SE95%10000m1007hPa68%
27-Jun-2024 03:00Light Rain17°C2 mph, SE14%10000m1005hPa72%
27-Jun-2024 06:00Light Rain12°C4 mph, S44%10000m1006hPa94%
27-Jun-2024 09:00Overcast Clouds10°C4 mph, S88%10000m1005hPa94%
27-Jun-2024 12:00Light Rain10°C4 mph, S87%10000m1004hPa94%
27-Jun-2024 15:00Light Rain13°C7 mph, S100%10000m1004hPa81%
27-Jun-2024 18:00Light Rain15°C9 mph, SW100%10000m1004hPa70%
27-Jun-2024 21:00Light Rain17°C9 mph, S100%10000m1003hPa47%
28-Jun-2024 00:00Light Rain14°C0 mph, SE100%10000m1005hPa71%
28-Jun-2024 03:00Light Rain10°C7 mph, N100%10000m1011hPa87%
28-Jun-2024 06:00Light Rain9°C2 mph, NW100%10000m1013hPa90%
28-Jun-2024 09:00Overcast Clouds8°C2 mph, NW100%10000m1015hPa92%
28-Jun-2024 12:00Broken Clouds7°C2 mph, W82%10000m1018hPa91%
28-Jun-2024 15:00Few Clouds13°C2 mph, N21%10000m1018hPa63%
28-Jun-2024 18:00Scattered Clouds19°C0 mph, NE25%10000m1016hPa38%
28-Jun-2024 21:00Scattered Clouds23°C7 mph, E36%10000m1013hPa25%
29-Jun-2024 00:00Scattered Clouds23°C7 mph, E35%10000m1011hPa26%
29-Jun-2024 03:00Scattered Clouds18°C2 mph, SE37%10000m1012hPa46%
29-Jun-2024 06:00Scattered Clouds12°C2 mph, SW28%10000m1015hPa63%
29-Jun-2024 09:00Few Clouds10°C2 mph, SW11%10000m1015hPa69%
29-Jun-2024 12:00Broken Clouds9°C2 mph, W51%10000m1016hPa76%
29-Jun-2024 15:00Overcast Clouds15°C0 mph, N100%10000m1015hPa55%
29-Jun-2024 18:00Overcast Clouds21°C2 mph, NE100%10000m1012hPa36%
29-Jun-2024 21:00Overcast Clouds25°C4 mph, E100%10000m1009hPa28%
30-Jun-2024 00:00Overcast Clouds25°C4 mph, E100%10000m1007hPa29%
30-Jun-2024 03:00Overcast Clouds20°C4 mph, S100%10000m1008hPa49%
30-Jun-2024 06:00Overcast Clouds16°C2 mph, SW100%10000m1009hPa56%
30-Jun-2024 09:00Overcast Clouds16°C4 mph, S100%10000m1009hPa59%
30-Jun-2024 12:00Overcast Clouds14°C4 mph, S100%10000m1009hPa82%